sensor_id;sensor_type;location;lat;lon;timestamp;temperature;humidity
210;DHT22;90;48.810;9.120;2023-05-07T00:02:01;15.30;79.10
210;DHT22;90;48.810;9.120;2023-05-07T00:04:29;15.30;78.90
210;DHT22;90;48.810;9.120;2023-05-07T00:07:02;15.40;78.80
210;DHT22;90;48.810;9.120;2023-05-07T00:09:29;15.30;78.50
210;DHT22;90;48.810;9.120;2023-05-07T00:11:56;15.30;78.80
210;DHT22;90;48.810;9.120;2023-05-07T00:14:22;15.30;79.00
210;DHT22;90;48.810;9.120;2023-05-07T00:16:49;15.30;79.10
210;DHT22;90;48.810;9.120;2023-05-07T00:19:16;15.30;79.20
210;DHT22;90;48.810;9.120;2023-05-07T00:21:42;15.30;79.40
210;DHT22;90;48.810;9.120;2023-05-07T00:24:10;15.20;79.60
210;DHT22;90;48.810;9.120;2023-05-07T00:26:37;15.20;79.70
210;DHT22;90;48.810;9.120;2023-05-07T00:29:04;15.20;79.70
210;DHT22;90;48.810;9.120;2023-05-07T00:31:30;15.30;79.60
210;DHT22;90;48.810;9.120;2023-05-07T00:33:57;15.30;79.60
210;DHT22;90;48.810;9.120;2023-05-07T00:36:24;15.30;79.70
210;DHT22;90;48.810;9.120;2023-05-07T00:38:51;15.20;79.90
210;DHT22;90;48.810;9.120;2023-05-07T00:41:19;15.20;79.80
210;DHT22;90;48.810;9.120;2023-05-07T00:43:46;15.10;80.10
210;DHT22;90;48.810;9.120;2023-05-07T00:46:13;15.10;80.20
210;DHT22;90;48.810;9.120;2023-05-07T00:48:41;15.00;80.30
210;DHT22;90;48.810;9.120;2023-05-07T00:51:08;15.00;80.50
210;DHT22;90;48.810;9.120;2023-05-07T00:53:36;15.00;80.50
210;DHT22;90;48.810;9.120;2023-05-07T00:56:03;15.00;80.40
210;DHT22;90;48.810;9.120;2023-05-07T00:58:33;14.90;80.80
210;DHT22;90;48.810;9.120;2023-05-07T01:01:00;14.90;80.90
210;DHT22;90;48.810;9.120;2023-05-07T01:03:26;14.90;81.00
210;DHT22;90;48.810;9.120;2023-05-07T01:05:54;14.80;81.00
210;DHT22;90;48.810;9.120;2023-05-07T01:08:22;14.80;81.30
210;DHT22;90;48.810;9.120;2023-05-07T01:10:50;14.80;81.50
210;DHT22;90;48.810;9.120;2023-05-07T01:13:18;14.80;81.30
210;DHT22;90;48.810;9.120;2023-05-07T01:15:47;14.90;81.10
210;DHT22;90;48.810;9.120;2023-05-07T01:18:14;14.90;81.00
210;DHT22;90;48.810;9.120;2023-05-07T01:20:41;14.90;81.00
210;DHT22;90;48.810;9.120;2023-05-07T01:23:11;14.90;81.00
210;DHT22;90;48.810;9.120;2023-05-07T01:25:37;14.80;81.20
210;DHT22;90;48.810;9.120;2023-05-07T01:28:04;14.80;81.20
210;DHT22;90;48.810;9.120;2023-05-07T01:30:33;14.80;81.40
210;DHT22;90;48.810;9.120;2023-05-07T01:33:03;14.80;81.30
210;DHT22;90;48.810;9.120;2023-05-07T01:35:35;14.80;81.30
210;DHT22;90;48.810;9.120;2023-05-07T01:38:04;14.80;81.30
210;DHT22;90;48.810;9.120;2023-05-07T01:40:33;14.80;81.20
210;DHT22;90;48.810;9.120;2023-05-07T01:43:01;14.80;81.30
210;DHT22;90;48.810;9.120;2023-05-07T01:45:28;14.80;81.40
210;DHT22;90;48.810;9.120;2023-05-07T01:47:57;14.80;81.40
210;DHT22;90;48.810;9.120;2023-05-07T01:50:25;14.80;81.40
210;DHT22;90;48.810;9.120;2023-05-07T01:52:52;14.80;81.60
210;DHT22;90;48.810;9.120;2023-05-07T01:55:19;14.80;81.60
210;DHT22;90;48.810;9.120;2023-05-07T01:57:47;14.70;81.80
210;DHT22;90;48.810;9.120;2023-05-07T02:00:14;14.70;82.00
210;DHT22;90;48.810;9.120;2023-05-07T02:02:41;14.80;82.10
210;DHT22;90;48.810;9.120;2023-05-07T02:05:10;14.80;82.10
210;DHT22;90;48.810;9.120;2023-05-07T02:10:04;14.80;82.30
210;DHT22;90;48.810;9.120;2023-05-07T02:12:31;14.70;82.30
210;DHT22;90;48.810;9.120;2023-05-07T02:14:59;14.70;82.60
210;DHT22;90;48.810;9.120;2023-05-07T02:17:26;14.80;82.40
210;DHT22;90;48.810;9.120;2023-05-07T02:19:53;14.80;82.10
210;DHT22;90;48.810;9.120;2023-05-07T02:22:19;14.80;82.00
210;DHT22;90;48.810;9.120;2023-05-07T02:24:46;14.80;81.70
210;DHT22;90;48.810;9.120;2023-05-07T02:27:13;14.80;82.00
210;DHT22;90;48.810;9.120;2023-05-07T02:29:39;14.80;82.10
210;DHT22;90;48.810;9.120;2023-05-07T02:32:08;14.80;81.90
210;DHT22;90;48.810;9.120;2023-05-07T02:34:34;14.80;82.00
210;DHT22;90;48.810;9.120;2023-05-07T02:37:01;14.70;82.00
210;DHT22;90;48.810;9.120;2023-05-07T02:39:28;14.60;82.30
210;DHT22;90;48.810;9.120;2023-05-07T02:41:55;14.60;82.50
210;DHT22;90;48.810;9.120;2023-05-07T02:44:21;14.50;82.30
210;DHT22;90;48.810;9.120;2023-05-07T02:46:48;14.50;82.50
210;DHT22;90;48.810;9.120;2023-05-07T02:49:16;14.50;82.60
210;DHT22;90;48.810;9.120;2023-05-07T02:51:43;14.40;82.70
210;DHT22;90;48.810;9.120;2023-05-07T02:54:09;14.40;82.80
210;DHT22;90;48.810;9.120;2023-05-07T02:56:36;14.40;82.90
210;DHT22;90;48.810;9.120;2023-05-07T02:59:03;14.50;82.60
210;DHT22;90;48.810;9.120;2023-05-07T03:01:30;14.50;82.50
210;DHT22;90;48.810;9.120;2023-05-07T03:03:57;14.40;82.60
210;DHT22;90;48.810;9.120;2023-05-07T03:06:25;14.40;82.80
210;DHT22;90;48.810;9.120;2023-05-07T03:08:52;14.30;82.90
210;DHT22;90;48.810;9.120;2023-05-07T03:11:19;14.30;83.00
210;DHT22;90;48.810;9.120;2023-05-07T03:13:46;14.30;83.20
210;DHT22;90;48.810;9.120;2023-05-07T03:16:14;14.20;83.30
210;DHT22;90;48.810;9.120;2023-05-07T03:18:41;14.10;83.70
210;DHT22;90;48.810;9.120;2023-05-07T03:21:08;14.20;83.70
210;DHT22;90;48.810;9.120;2023-05-07T03:23:36;14.10;83.70
210;DHT22;90;48.810;9.120;2023-05-07T03:26:02;14.10;83.50
210;DHT22;90;48.810;9.120;2023-05-07T03:28:29;14.10;83.20
210;DHT22;90;48.810;9.120;2023-05-07T03:30:56;14.00;83.40
210;DHT22;90;48.810;9.120;2023-05-07T03:33:22;14.00;83.90
210;DHT22;90;48.810;9.120;2023-05-07T03:35:49;14.00;83.90
210;DHT22;90;48.810;9.120;2023-05-07T03:38:16;14.00;83.90
210;DHT22;90;48.810;9.120;2023-05-07T03:40:44;14.00;83.90
210;DHT22;90;48.810;9.120;2023-05-07T03:43:11;14.00;83.80
210;DHT22;90;48.810;9.120;2023-05-07T03:45:37;13.90;84.20
210;DHT22;90;48.810;9.120;2023-05-07T03:48:04;14.10;83.70
210;DHT22;90;48.810;9.120;2023-05-07T03:50:31;14.10;83.10
210;DHT22;90;48.810;9.120;2023-05-07T03:52:57;14.00;83.40
210;DHT22;90;48.810;9.120;2023-05-07T03:55:24;14.00;83.40
210;DHT22;90;48.810;9.120;2023-05-07T03:57:52;14.00;83.40
210;DHT22;90;48.810;9.120;2023-05-07T04:00:19;13.90;83.30
210;DHT22;90;48.810;9.120;2023-05-07T04:02:46;13.90;83.60
210;DHT22;90;48.810;9.120;2023-05-07T04:05:14;13.80;83.80
210;DHT22;90;48.810;9.120;2023-05-07T04:07:41;13.80;83.80
210;DHT22;90;48.810;9.120;2023-05-07T04:10:08;13.80;84.10
210;DHT22;90;48.810;9.120;2023-05-07T04:12:35;13.80;84.00
210;DHT22;90;48.810;9.120;2023-05-07T04:15:04;13.80;84.30
210;DHT22;90;48.810;9.120;2023-05-07T04:17:31;13.70;84.10
210;DHT22;90;48.810;9.120;2023-05-07T04:19:57;13.70;84.30
210;DHT22;90;48.810;9.120;2023-05-07T04:22:24;13.70;84.50
210;DHT22;90;48.810;9.120;2023-05-07T04:24:51;13.70;84.50
210;DHT22;90;48.810;9.120;2023-05-07T04:27:17;13.70;84.40
210;DHT22;90;48.810;9.120;2023-05-07T04:29:44;13.70;84.70
210;DHT22;90;48.810;9.120;2023-05-07T04:32:14;13.70;84.50
210;DHT22;90;48.810;9.120;2023-05-07T04:34:40;13.80;84.30
210;DHT22;90;48.810;9.120;2023-05-07T04:37:08;13.80;84.20
210;DHT22;90;48.810;9.120;2023-05-07T04:39:34;13.90;84.30
210;DHT22;90;48.810;9.120;2023-05-07T04:42:02;13.80;84.30
210;DHT22;90;48.810;9.120;2023-05-07T04:44:29;13.80;84.40
210;DHT22;90;48.810;9.120;2023-05-07T04:46:56;13.80;84.50
210;DHT22;90;48.810;9.120;2023-05-07T04:49:24;13.80;84.30
210;DHT22;90;48.810;9.120;2023-05-07T04:51:51;13.80;84.50
210;DHT22;90;48.810;9.120;2023-05-07T04:54:18;13.90;84.00
210;DHT22;90;48.810;9.120;2023-05-07T04:56:44;14.00;84.00
210;DHT22;90;48.810;9.120;2023-05-07T04:59:11;14.00;83.70
210;DHT22;90;48.810;9.120;2023-05-07T05:01:38;14.00;83.70
210;DHT22;90;48.810;9.120;2023-05-07T05:04:05;14.00;84.00
210;DHT22;90;48.810;9.120;2023-05-07T05:06:33;14.00;84.10
210;DHT22;90;48.810;9.120;2023-05-07T05:09:00;14.00;84.10
210;DHT22;90;48.810;9.120;2023-05-07T05:11:27;14.10;84.00
210;DHT22;90;48.810;9.120;2023-05-07T05:13:53;14.00;84.20
210;DHT22;90;48.810;9.120;2023-05-07T05:16:20;14.00;84.10
210;DHT22;90;48.810;9.120;2023-05-07T05:18:47;14.00;84.10
210;DHT22;90;48.810;9.120;2023-05-07T05:21:13;13.90;84.50
210;DHT22;90;48.810;9.120;2023-05-07T05:23:41;14.00;84.50
210;DHT22;90;48.810;9.120;2023-05-07T05:26:08;14.10;84.40
210;DHT22;90;48.810;9.120;2023-05-07T05:28:35;14.10;84.60
210;DHT22;90;48.810;9.120;2023-05-07T05:31:02;14.20;84.20
210;DHT22;90;48.810;9.120;2023-05-07T05:33:29;14.20;84.40
210;DHT22;90;48.810;9.120;2023-05-07T05:35:55;14.50;83.70
210;DHT22;90;48.810;9.120;2023-05-07T05:38:22;14.60;83.60
210;DHT22;90;48.810;9.120;2023-05-07T05:40:50;14.70;83.60
210;DHT22;90;48.810;9.120;2023-05-07T05:43:17;14.80;83.20
210;DHT22;90;48.810;9.120;2023-05-07T05:45:44;14.80;83.00
210;DHT22;90;48.810;9.120;2023-05-07T05:48:11;14.80;82.50
210;DHT22;90;48.810;9.120;2023-05-07T05:50:38;14.90;82.40
210;DHT22;90;48.810;9.120;2023-05-07T05:53:05;15.00;82.30
210;DHT22;90;48.810;9.120;2023-05-07T05:55:31;15.00;82.60
210;DHT22;90;48.810;9.120;2023-05-07T05:58:03;15.10;82.40
210;DHT22;90;48.810;9.120;2023-05-07T06:00:30;15.40;81.40
210;DHT22;90;48.810;9.120;2023-05-07T06:02:57;15.40;81.40
210;DHT22;90;48.810;9.120;2023-05-07T06:05:24;15.50;80.90
210;DHT22;90;48.810;9.120;2023-05-07T06:07:50;15.70;81.00
210;DHT22;90;48.810;9.120;2023-05-07T06:10:17;15.80;80.20
210;DHT22;90;48.810;9.120;2023-05-07T06:12:44;15.90;79.90
210;DHT22;90;48.810;9.120;2023-05-07T06:15:12;16.10;80.20
210;DHT22;90;48.810;9.120;2023-05-07T06:17:39;16.60;78.80
210;DHT22;90;48.810;9.120;2023-05-07T06:20:07;16.90;77.20
210;DHT22;90;48.810;9.120;2023-05-07T06:22:33;17.00;76.60
210;DHT22;90;48.810;9.120;2023-05-07T06:25:00;16.90;76.00
210;DHT22;90;48.810;9.120;2023-05-07T06:27:27;16.80;76.30
210;DHT22;90;48.810;9.120;2023-05-07T06:29:54;16.70;76.60
210;DHT22;90;48.810;9.120;2023-05-07T06:32:22;16.60;76.90
210;DHT22;90;48.810;9.120;2023-05-07T06:34:49;16.60;77.10
210;DHT22;90;48.810;9.120;2023-05-07T06:37:15;16.50;77.40
210;DHT22;90;48.810;9.120;2023-05-07T06:39:42;16.50;77.70
210;DHT22;90;48.810;9.120;2023-05-07T06:42:09;16.50;78.10
210;DHT22;90;48.810;9.120;2023-05-07T06:44:35;16.60;78.00
210;DHT22;90;48.810;9.120;2023-05-07T06:47:02;16.70;77.90
210;DHT22;90;48.810;9.120;2023-05-07T06:49:31;16.70;78.10
210;DHT22;90;48.810;9.120;2023-05-07T06:51:58;16.80;78.40
210;DHT22;90;48.810;9.120;2023-05-07T06:54:25;17.00;78.20
210;DHT22;90;48.810;9.120;2023-05-07T06:56:52;17.00;78.10
210;DHT22;90;48.810;9.120;2023-05-07T06:59:19;17.10;78.30
210;DHT22;90;48.810;9.120;2023-05-07T07:01:45;17.20;77.30
210;DHT22;90;48.810;9.120;2023-05-07T07:04:12;17.30;76.50
210;DHT22;90;48.810;9.120;2023-05-07T07:06:40;17.40;76.10
210;DHT22;90;48.810;9.120;2023-05-07T07:09:07;17.60;75.50
210;DHT22;90;48.810;9.120;2023-05-07T07:11:34;17.60;76.20
210;DHT22;90;48.810;9.120;2023-05-07T07:14:00;17.70;76.10
210;DHT22;90;48.810;9.120;2023-05-07T07:16:27;17.80;75.40
210;DHT22;90;48.810;9.120;2023-05-07T07:18:54;17.90;75.30
210;DHT22;90;48.810;9.120;2023-05-07T07:21:21;18.00;75.20
210;DHT22;90;48.810;9.120;2023-05-07T07:23:49;18.20;75.10
210;DHT22;90;48.810;9.120;2023-05-07T07:26:16;18.30;74.80
210;DHT22;90;48.810;9.120;2023-05-07T07:28:43;18.40;74.60
210;DHT22;90;48.810;9.120;2023-05-07T07:31:10;18.60;74.30
210;DHT22;90;48.810;9.120;2023-05-07T07:33:37;18.70;73.00
210;DHT22;90;48.810;9.120;2023-05-07T07:36:05;18.80;72.50
210;DHT22;90;48.810;9.120;2023-05-07T07:38:32;18.70;72.00
210;DHT22;90;48.810;9.120;2023-05-07T07:41:00;18.80;72.40
210;DHT22;90;48.810;9.120;2023-05-07T07:43:27;18.90;72.70
210;DHT22;90;48.810;9.120;2023-05-07T07:45:54;19.00;72.10
210;DHT22;90;48.810;9.120;2023-05-07T07:48:20;19.00;71.50
210;DHT22;90;48.810;9.120;2023-05-07T07:50:49;19.20;71.10
210;DHT22;90;48.810;9.120;2023-05-07T07:53:16;19.20;71.40
210;DHT22;90;48.810;9.120;2023-05-07T07:55:43;19.10;71.10
210;DHT22;90;48.810;9.120;2023-05-07T07:58:11;19.20;71.10
210;DHT22;90;48.810;9.120;2023-05-07T08:00:37;19.20;71.00
210;DHT22;90;48.810;9.120;2023-05-07T08:03:04;19.10;70.80
210;DHT22;90;48.810;9.120;2023-05-07T08:05:32;19.10;70.50
210;DHT22;90;48.810;9.120;2023-05-07T08:07:59;19.10;70.80
210;DHT22;90;48.810;9.120;2023-05-07T08:10:26;19.10;71.80
210;DHT22;90;48.810;9.120;2023-05-07T08:12:52;19.20;71.80
210;DHT22;90;48.810;9.120;2023-05-07T08:15:20;19.20;71.90
210;DHT22;90;48.810;9.120;2023-05-07T08:17:47;19.30;71.00
210;DHT22;90;48.810;9.120;2023-05-07T08:20:14;19.30;71.10
210;DHT22;90;48.810;9.120;2023-05-07T08:22:41;19.40;70.70
210;DHT22;90;48.810;9.120;2023-05-07T08:25:08;19.50;71.00
210;DHT22;90;48.810;9.120;2023-05-07T08:27:35;19.60;71.30
210;DHT22;90;48.810;9.120;2023-05-07T08:30:02;19.70;70.60
210;DHT22;90;48.810;9.120;2023-05-07T08:32:30;19.80;70.30
210;DHT22;90;48.810;9.120;2023-05-07T08:34:57;19.70;69.90
210;DHT22;90;48.810;9.120;2023-05-07T08:37:27;19.70;69.80
210;DHT22;90;48.810;9.120;2023-05-07T08:39:54;19.60;70.60
210;DHT22;90;48.810;9.120;2023-05-07T08:42:21;19.60;70.70
210;DHT22;90;48.810;9.120;2023-05-07T08:44:51;19.70;70.30
210;DHT22;90;48.810;9.120;2023-05-07T08:47:23;19.90;69.20
210;DHT22;90;48.810;9.120;2023-05-07T08:49:57;20.00;69.70
210;DHT22;90;48.810;9.120;2023-05-07T08:52:24;20.10;69.20
210;DHT22;90;48.810;9.120;2023-05-07T08:54:51;20.30;69.60
210;DHT22;90;48.810;9.120;2023-05-07T08:57:18;20.30;68.40
210;DHT22;90;48.810;9.120;2023-05-07T08:59:45;20.40;68.10
210;DHT22;90;48.810;9.120;2023-05-07T09:02:12;20.50;68.10
210;DHT22;90;48.810;9.120;2023-05-07T09:04:40;20.60;68.10
210;DHT22;90;48.810;9.120;2023-05-07T09:07:08;20.60;67.90
210;DHT22;90;48.810;9.120;2023-05-07T09:09:35;20.70;66.70
210;DHT22;90;48.810;9.120;2023-05-07T09:12:01;20.70;67.60
210;DHT22;90;48.810;9.120;2023-05-07T09:14:29;20.80;66.30
210;DHT22;90;48.810;9.120;2023-05-07T09:16:56;20.80;66.20
210;DHT22;90;48.810;9.120;2023-05-07T09:19:23;21.00;67.00
210;DHT22;90;48.810;9.120;2023-05-07T09:21:49;21.10;65.60
210;DHT22;90;48.810;9.120;2023-05-07T09:24:18;21.20;66.20
210;DHT22;90;48.810;9.120;2023-05-07T09:26:49;21.30;66.10
210;DHT22;90;48.810;9.120;2023-05-07T09:29:18;21.40;64.40
210;DHT22;90;48.810;9.120;2023-05-07T09:31:48;21.50;64.00
210;DHT22;90;48.810;9.120;2023-05-07T09:34:16;21.50;64.50
210;DHT22;90;48.810;9.120;2023-05-07T09:36:42;21.50;63.60
210;DHT22;90;48.810;9.120;2023-05-07T09:39:09;21.60;63.80
210;DHT22;90;48.810;9.120;2023-05-07T09:41:45;21.70;63.90
210;DHT22;90;48.810;9.120;2023-05-07T09:44:12;21.60;62.50
210;DHT22;90;48.810;9.120;2023-05-07T09:46:42;21.70;63.20
210;DHT22;90;48.810;9.120;2023-05-07T09:49:12;21.70;62.10
210;DHT22;90;48.810;9.120;2023-05-07T09:51:47;21.80;63.10
210;DHT22;90;48.810;9.120;2023-05-07T09:54:14;21.80;62.80
210;DHT22;90;48.810;9.120;2023-05-07T09:56:44;21.80;64.20
210;DHT22;90;48.810;9.120;2023-05-07T09:59:13;21.90;64.80
210;DHT22;90;48.810;9.120;2023-05-07T10:01:41;22.00;62.90
210;DHT22;90;48.810;9.120;2023-05-07T10:04:08;22.00;61.10
210;DHT22;90;48.810;9.120;2023-05-07T10:06:36;22.10;61.30
210;DHT22;90;48.810;9.120;2023-05-07T10:09:04;22.20;60.90
210;DHT22;90;48.810;9.120;2023-05-07T10:11:32;22.30;59.80
210;DHT22;90;48.810;9.120;2023-05-07T10:14:01;22.30;60.60
210;DHT22;90;48.810;9.120;2023-05-07T10:16:28;22.40;61.30
210;DHT22;90;48.810;9.120;2023-05-07T10:18:58;22.60;61.40
210;DHT22;90;48.810;9.120;2023-05-07T10:21:27;22.70;60.30
210;DHT22;90;48.810;9.120;2023-05-07T10:23:58;22.70;58.80
210;DHT22;90;48.810;9.120;2023-05-07T10:26:27;22.80;59.90
210;DHT22;90;48.810;9.120;2023-05-07T10:29:01;22.80;60.20
210;DHT22;90;48.810;9.120;2023-05-07T10:31:52;22.90;58.90
210;DHT22;90;48.810;9.120;2023-05-07T10:34:23;23.00;59.20
210;DHT22;90;48.810;9.120;2023-05-07T10:36:51;23.00;59.30
210;DHT22;90;48.810;9.120;2023-05-07T10:39:19;23.00;58.30
210;DHT22;90;48.810;9.120;2023-05-07T10:41:47;22.80;59.00
210;DHT22;90;48.810;9.120;2023-05-07T10:44:26;22.70;59.40
210;DHT22;90;48.810;9.120;2023-05-07T10:47:04;22.60;59.60
210;DHT22;90;48.810;9.120;2023-05-07T10:49:31;22.60;60.10
210;DHT22;90;48.810;9.120;2023-05-07T10:52:12;22.40;60.30
210;DHT22;90;48.810;9.120;2023-05-07T10:54:40;22.40;61.20
210;DHT22;90;48.810;9.120;2023-05-07T10:57:32;22.40;61.40
210;DHT22;90;48.810;9.120;2023-05-07T11:00:00;22.30;61.30
210;DHT22;90;48.810;9.120;2023-05-07T11:05:28;22.30;61.60
210;DHT22;90;48.810;9.120;2023-05-07T11:07:55;22.20;60.90
210;DHT22;90;48.810;9.120;2023-05-07T11:10:22;22.20;61.30
210;DHT22;90;48.810;9.120;2023-05-07T11:12:51;22.10;61.20
210;DHT22;90;48.810;9.120;2023-05-07T11:15:43;22.00;60.60
210;DHT22;90;48.810;9.120;2023-05-07T11:18:11;21.90;59.90
210;DHT22;90;48.810;9.120;2023-05-07T11:20:52;21.80;61.70
210;DHT22;90;48.810;9.120;2023-05-07T11:26:46;21.90;61.20
210;DHT22;90;48.810;9.120;2023-05-07T11:29:15;21.80;60.60
210;DHT22;90;48.810;9.120;2023-05-07T11:31:43;21.80;61.00
210;DHT22;90;48.810;9.120;2023-05-07T11:34:11;21.80;61.30
210;DHT22;90;48.810;9.120;2023-05-07T11:36:42;21.80;62.00
210;DHT22;90;48.810;9.120;2023-05-07T11:39:27;21.70;61.90
210;DHT22;90;48.810;9.120;2023-05-07T11:41:54;21.70;62.50
210;DHT22;90;48.810;9.120;2023-05-07T11:44:21;21.50;63.30
210;DHT22;90;48.810;9.120;2023-05-07T11:46:49;21.40;63.10
210;DHT22;90;48.810;9.120;2023-05-07T11:49:17;21.40;63.40
210;DHT22;90;48.810;9.120;2023-05-07T11:51:44;21.40;63.90
210;DHT22;90;48.810;9.120;2023-05-07T11:54:15;21.40;64.50
210;DHT22;90;48.810;9.120;2023-05-07T11:56:43;21.40;65.70
210;DHT22;90;48.810;9.120;2023-05-07T11:59:10;21.40;66.60
210;DHT22;90;48.810;9.120;2023-05-07T12:01:40;21.40;65.80
210;DHT22;90;48.810;9.120;2023-05-07T12:04:08;21.30;65.30
210;DHT22;90;48.810;9.120;2023-05-07T12:06:36;21.30;65.30
210;DHT22;90;48.810;9.120;2023-05-07T12:09:04;21.20;67.40
210;DHT22;90;48.810;9.120;2023-05-07T12:11:36;21.10;67.20
210;DHT22;90;48.810;9.120;2023-05-07T12:14:05;20.90;67.90
210;DHT22;90;48.810;9.120;2023-05-07T12:16:32;20.90;69.30
210;DHT22;90;48.810;9.120;2023-05-07T12:18:59;20.70;69.40
210;DHT22;90;48.810;9.120;2023-05-07T12:21:30;20.60;69.70
210;DHT22;90;48.810;9.120;2023-05-07T12:23:57;20.40;70.50
210;DHT22;90;48.810;9.120;2023-05-07T12:26:24;20.10;71.70
210;DHT22;90;48.810;9.120;2023-05-07T12:28:51;19.80;73.50
210;DHT22;90;48.810;9.120;2023-05-07T12:31:17;19.60;74.40
210;DHT22;90;48.810;9.120;2023-05-07T12:33:45;19.50;74.80
210;DHT22;90;48.810;9.120;2023-05-07T12:36:13;19.30;76.00
210;DHT22;90;48.810;9.120;2023-05-07T12:38:42;19.30;76.60
210;DHT22;90;48.810;9.120;2023-05-07T12:41:10;19.30;78.20
210;DHT22;90;48.810;9.120;2023-05-07T12:43:38;19.20;79.70
210;DHT22;90;48.810;9.120;2023-05-07T12:46:06;19.10;81.10
210;DHT22;90;48.810;9.120;2023-05-07T12:48:35;18.90;81.70
210;DHT22;90;48.810;9.120;2023-05-07T12:51:02;18.80;81.10
210;DHT22;90;48.810;9.120;2023-05-07T12:53:30;18.60;80.50
210;DHT22;90;48.810;9.120;2023-05-07T12:55:59;18.60;80.60
210;DHT22;90;48.810;9.120;2023-05-07T12:58:27;18.60;80.20
210;DHT22;90;48.810;9.120;2023-05-07T13:00:55;18.50;79.90
210;DHT22;90;48.810;9.120;2023-05-07T13:03:25;18.40;79.30
210;DHT22;90;48.810;9.120;2023-05-07T13:05:52;18.30;79.40
210;DHT22;90;48.810;9.120;2023-05-07T13:08:27;18.30;78.90
210;DHT22;90;48.810;9.120;2023-05-07T13:10:54;18.30;78.40
210;DHT22;90;48.810;9.120;2023-05-07T13:13:22;18.30;78.90
210;DHT22;90;48.810;9.120;2023-05-07T13:15:50;18.30;79.70
210;DHT22;90;48.810;9.120;2023-05-07T13:18:17;18.20;80.40
210;DHT22;90;48.810;9.120;2023-05-07T13:20:43;18.30;80.70
210;DHT22;90;48.810;9.120;2023-05-07T13:23:10;18.30;81.90
210;DHT22;90;48.810;9.120;2023-05-07T13:25:37;18.10;83.60
210;DHT22;90;48.810;9.120;2023-05-07T13:28:06;17.90;82.00
210;DHT22;90;48.810;9.120;2023-05-07T13:30:34;17.60;82.30
210;DHT22;90;48.810;9.120;2023-05-07T13:33:03;17.50;82.50
210;DHT22;90;48.810;9.120;2023-05-07T13:35:30;17.50;82.20
210;DHT22;90;48.810;9.120;2023-05-07T13:37:57;17.50;82.10
210;DHT22;90;48.810;9.120;2023-05-07T13:40:24;17.50;82.60
210;DHT22;90;48.810;9.120;2023-05-07T13:42:51;17.40;83.00
210;DHT22;90;48.810;9.120;2023-05-07T13:45:18;17.30;83.40
210;DHT22;90;48.810;9.120;2023-05-07T13:47:46;17.30;83.60
210;DHT22;90;48.810;9.120;2023-05-07T13:50:14;17.30;83.80
210;DHT22;90;48.810;9.120;2023-05-07T13:52:42;17.20;83.40
210;DHT22;90;48.810;9.120;2023-05-07T13:55:11;17.30;82.90
210;DHT22;90;48.810;9.120;2023-05-07T13:57:38;17.30;82.00
210;DHT22;90;48.810;9.120;2023-05-07T14:00:06;17.40;81.50
210;DHT22;90;48.810;9.120;2023-05-07T14:02:32;17.40;81.80
210;DHT22;90;48.810;9.120;2023-05-07T14:05:00;17.50;82.30
210;DHT22;90;48.810;9.120;2023-05-07T14:07:27;17.40;82.30
210;DHT22;90;48.810;9.120;2023-05-07T14:09:54;17.30;82.10
210;DHT22;90;48.810;9.120;2023-05-07T14:12:21;17.30;81.50
210;DHT22;90;48.810;9.120;2023-05-07T14:14:48;17.20;81.20
210;DHT22;90;48.810;9.120;2023-05-07T14:17:15;17.10;82.50
210;DHT22;90;48.810;9.120;2023-05-07T14:19:42;17.10;82.70
210;DHT22;90;48.810;9.120;2023-05-07T14:22:12;17.10;82.70
210;DHT22;90;48.810;9.120;2023-05-07T14:24:39;17.10;83.30
210;DHT22;90;48.810;9.120;2023-05-07T14:27:06;17.10;83.90
210;DHT22;90;48.810;9.120;2023-05-07T14:29:33;17.10;83.80
210;DHT22;90;48.810;9.120;2023-05-07T14:32:01;17.00;84.40
210;DHT22;90;48.810;9.120;2023-05-07T14:34:27;17.00;85.20
210;DHT22;90;48.810;9.120;2023-05-07T14:36:54;16.90;85.80
210;DHT22;90;48.810;9.120;2023-05-07T14:39:22;17.00;85.70
210;DHT22;90;48.810;9.120;2023-05-07T14:41:49;17.00;85.80
210;DHT22;90;48.810;9.120;2023-05-07T14:44:15;17.00;84.60
210;DHT22;90;48.810;9.120;2023-05-07T14:46:42;17.00;84.60
210;DHT22;90;48.810;9.120;2023-05-07T14:49:13;17.00;84.20
210;DHT22;90;48.810;9.120;2023-05-07T14:51:42;17.00;84.20
210;DHT22;90;48.810;9.120;2023-05-07T14:54:09;17.10;83.80
210;DHT22;90;48.810;9.120;2023-05-07T14:56:37;17.10;83.60
210;DHT22;90;48.810;9.120;2023-05-07T14:59:04;17.20;83.30
210;DHT22;90;48.810;9.120;2023-05-07T15:01:32;17.20;83.70
210;DHT22;90;48.810;9.120;2023-05-07T15:04:00;17.20;83.20
210;DHT22;90;48.810;9.120;2023-05-07T15:06:26;17.30;83.40
210;DHT22;90;48.810;9.120;2023-05-07T15:08:53;17.30;83.10
210;DHT22;90;48.810;9.120;2023-05-07T15:11:20;17.30;83.60
210;DHT22;90;48.810;9.120;2023-05-07T15:13:49;17.30;84.20
210;DHT22;90;48.810;9.120;2023-05-07T15:16:16;17.40;84.10
210;DHT22;90;48.810;9.120;2023-05-07T15:18:43;17.50;84.30
210;DHT22;90;48.810;9.120;2023-05-07T15:21:09;17.60;84.50
210;DHT22;90;48.810;9.120;2023-05-07T15:23:36;17.70;85.00
210;DHT22;90;48.810;9.120;2023-05-07T15:26:04;17.80;85.10
210;DHT22;90;48.810;9.120;2023-05-07T15:28:30;17.90;85.90
210;DHT22;90;48.810;9.120;2023-05-07T15:31:02;17.90;86.50
210;DHT22;90;48.810;9.120;2023-05-07T15:33:30;17.90;87.00
210;DHT22;90;48.810;9.120;2023-05-07T15:35:58;18.00;86.70
210;DHT22;90;48.810;9.120;2023-05-07T15:38:25;18.00;86.90
210;DHT22;90;48.810;9.120;2023-05-07T15:40:52;18.10;86.80
210;DHT22;90;48.810;9.120;2023-05-07T15:43:20;18.10;86.70
210;DHT22;90;48.810;9.120;2023-05-07T15:45:47;18.10;86.50
210;DHT22;90;48.810;9.120;2023-05-07T15:48:15;18.20;86.10
210;DHT22;90;48.810;9.120;2023-05-07T15:50:42;18.20;86.30
210;DHT22;90;48.810;9.120;2023-05-07T15:53:08;18.20;86.70
210;DHT22;90;48.810;9.120;2023-05-07T15:55:38;18.20;87.10
210;DHT22;90;48.810;9.120;2023-05-07T15:58:08;18.20;86.10
210;DHT22;90;48.810;9.120;2023-05-07T16:00:35;18.20;85.90
210;DHT22;90;48.810;9.120;2023-05-07T16:03:05;18.10;86.10
210;DHT22;90;48.810;9.120;2023-05-07T16:05:33;18.10;86.20
210;DHT22;90;48.810;9.120;2023-05-07T16:08:00;18.10;86.00
210;DHT22;90;48.810;9.120;2023-05-07T16:10:26;18.10;85.50
210;DHT22;90;48.810;9.120;2023-05-07T16:12:53;18.00;85.80
210;DHT22;90;48.810;9.120;2023-05-07T16:15:20;18.00;86.30
210;DHT22;90;48.810;9.120;2023-05-07T16:17:47;18.10;86.10
210;DHT22;90;48.810;9.120;2023-05-07T16:20:16;18.10;86.50
210;DHT22;90;48.810;9.120;2023-05-07T16:22:45;18.10;86.90
210;DHT22;90;48.810;9.120;2023-05-07T16:25:12;18.20;87.20
210;DHT22;90;48.810;9.120;2023-05-07T16:27:40;18.20;86.90
210;DHT22;90;48.810;9.120;2023-05-07T16:30:07;18.00;87.00
210;DHT22;90;48.810;9.120;2023-05-07T16:32:34;18.00;87.70
210;DHT22;90;48.810;9.120;2023-05-07T16:35:01;17.90;87.70
210;DHT22;90;48.810;9.120;2023-05-07T16:37:28;17.90;86.80
210;DHT22;90;48.810;9.120;2023-05-07T16:39:56;17.80;86.90
210;DHT22;90;48.810;9.120;2023-05-07T16:42:25;17.90;86.70
210;DHT22;90;48.810;9.120;2023-05-07T16:44:52;17.90;87.10
210;DHT22;90;48.810;9.120;2023-05-07T16:47:22;17.90;87.70
210;DHT22;90;48.810;9.120;2023-05-07T16:49:49;17.90;87.80
210;DHT22;90;48.810;9.120;2023-05-07T16:52:16;17.90;87.80
210;DHT22;90;48.810;9.120;2023-05-07T16:54:43;17.90;88.40
210;DHT22;90;48.810;9.120;2023-05-07T16:57:11;17.90;88.60
210;DHT22;90;48.810;9.120;2023-05-07T16:59:41;17.90;88.80
210;DHT22;90;48.810;9.120;2023-05-07T17:02:11;17.90;88.90
210;DHT22;90;48.810;9.120;2023-05-07T17:04:38;18.00;88.90